createdAt,value
2023-04-30T00:02:04.176Z,58.77
2023-04-30T00:08:13.457Z,59.11
2023-04-30T00:10:40.383Z,59.23
2023-04-30T00:13:07.289Z,59.51
2023-04-30T00:15:34.255Z,59.77
2023-04-30T00:18:01.326Z,59.88
2023-04-30T00:20:28.358Z,60.11
2023-04-30T00:22:55.966Z,60.26
2023-04-30T00:25:24.710Z,60.43
2023-04-30T00:27:51.686Z,60.43
2023-04-30T00:30:18.816Z,60.47
2023-04-30T00:32:48.711Z,60.62
2023-04-30T00:35:16.405Z,60.43
2023-04-30T00:37:43.436Z,60.60
2023-04-30T00:40:10.925Z,60.43
2023-04-30T00:42:37.829Z,60.65
2023-04-30T00:45:05.271Z,60.76
2023-04-30T00:47:32.344Z,61.09
2023-04-30T00:49:59.629Z,61.15
2023-04-30T00:52:27.529Z,61.25
2023-04-30T00:54:54.717Z,61.32
2023-04-30T00:57:22.168Z,61.46
2023-04-30T00:59:49.177Z,61.48
2023-04-30T01:02:17.505Z,61.46
2023-04-30T01:04:44.647Z,61.84
2023-04-30T01:07:11.647Z,61.78
2023-04-30T01:09:38.596Z,61.96
2023-04-30T01:12:21.996Z,62.20
2023-04-30T01:15:07.643Z,62.43
2023-04-30T01:17:36.783Z,62.43
2023-04-30T01:20:04.087Z,62.62
2023-04-30T01:22:47.585Z,62.84
2023-04-30T01:25:41.052Z,62.98
2023-04-30T01:28:18.176Z,63.38
2023-04-30T01:30:45.565Z,63.37
2023-04-30T01:33:13.223Z,63.61
2023-04-30T01:35:48.797Z,63.61
2023-04-30T01:38:38.996Z,63.73
2023-04-30T01:41:32.387Z,63.87
2023-04-30T01:44:18.570Z,64.19
2023-04-30T01:46:48.836Z,64.44
2023-04-30T01:49:22.434Z,64.76
2023-04-30T01:51:49.440Z,64.92
2023-04-30T01:54:16.439Z,65.24
2023-04-30T01:56:46.256Z,65.52
2023-04-30T01:59:13.284Z,65.62
2023-04-30T02:01:41.388Z,66.17
2023-04-30T02:04:08.446Z,66.15
2023-04-30T02:06:35.472Z,66.18
2023-04-30T02:09:05.444Z,66.53
2023-04-30T02:11:32.559Z,66.77
2023-04-30T02:13:59.658Z,66.82
2023-04-30T02:16:26.895Z,66.68
2023-04-30T02:18:54.091Z,67.00
2023-04-30T02:21:21.380Z,67.28
2023-04-30T02:23:48.462Z,67.56
2023-04-30T02:26:15.793Z,67.72
2023-04-30T02:28:42.867Z,67.74
2023-04-30T02:31:10.513Z,68.30
2023-04-30T02:33:37.488Z,68.89
2023-04-30T02:36:04.815Z,69.19
2023-04-30T02:38:31.786Z,69.45
2023-04-30T02:40:58.773Z,69.52
2023-04-30T02:43:25.826Z,70.24
2023-04-30T02:45:52.794Z,69.86
2023-04-30T02:48:19.783Z,70.17
2023-04-30T02:50:46.738Z,70.75
2023-04-30T02:53:13.799Z,70.89
2023-04-30T02:55:40.865Z,70.84
2023-04-30T02:58:07.864Z,71.50
2023-04-30T03:00:35.026Z,72.01
2023-04-30T03:03:02.143Z,72.40
2023-04-30T03:05:30.344Z,73.22
2023-04-30T03:07:57.371Z,74.06
2023-04-30T03:10:24.360Z,74.85
2023-04-30T03:12:51.679Z,75.02
2023-04-30T03:15:18.705Z,75.23
2023-04-30T03:17:46.457Z,75.34
2023-04-30T03:20:14.493Z,75.68
2023-04-30T03:22:42.019Z,75.91
2023-04-30T03:25:10.073Z,76.11
2023-04-30T03:27:37.011Z,76.47
2023-04-30T03:30:04.224Z,76.71
2023-04-30T03:32:31.333Z,76.66
2023-04-30T03:34:58.676Z,76.95
2023-04-30T03:37:26.892Z,77.31
2023-04-30T03:39:54.108Z,77.64
2023-04-30T03:42:21.352Z,77.80
2023-04-30T03:44:48.316Z,77.99
2023-04-30T03:47:15.297Z,78.05
2023-04-30T03:49:42.370Z,78.13
2023-04-30T03:52:09.459Z,78.25
2023-04-30T03:54:36.512Z,78.62
2023-04-30T03:57:08.076Z,78.59
2023-04-30T03:59:35.042Z,78.71
2023-04-30T04:02:02.303Z,78.78
2023-04-30T04:04:30.195Z,78.50
2023-04-30T04:06:57.441Z,78.57
2023-04-30T04:09:24.421Z,78.70
2023-04-30T04:11:51.449Z,78.87
2023-04-30T04:14:18.523Z,78.72
2023-04-30T04:16:45.754Z,78.73
2023-04-30T04:19:13.564Z,78.51
2023-04-30T04:21:40.743Z,78.57
2023-04-30T04:24:13.302Z,78.21
2023-04-30T04:26:40.359Z,77.99
2023-04-30T04:29:11.105Z,77.98
2023-04-30T04:31:38.824Z,77.75
2023-04-30T04:34:05.914Z,77.63
2023-04-30T04:36:34.332Z,77.47
2023-04-30T04:39:02.397Z,77.24
2023-04-30T04:41:30.256Z,77.19
2023-04-30T04:43:57.240Z,76.99
2023-04-30T04:46:25.077Z,76.75
2023-04-30T04:48:53.261Z,76.44
2023-04-30T04:51:20.511Z,76.08
2023-04-30T04:53:47.594Z,75.81
2023-04-30T04:56:14.544Z,75.68
2023-04-30T04:58:42.153Z,75.46
2023-04-30T05:01:09.429Z,75.40
2023-04-30T05:03:39.272Z,75.34
2023-04-30T05:06:06.500Z,75.46
2023-04-30T05:08:33.605Z,75.44
2023-04-30T05:11:00.511Z,75.10
2023-04-30T05:13:27.529Z,75.08
2023-04-30T05:15:54.715Z,74.99
2023-04-30T05:18:21.676Z,75.05
2023-04-30T05:20:48.917Z,75.23
2023-04-30T05:23:15.947Z,75.37
2023-04-30T05:25:42.853Z,75.27
2023-04-30T05:28:10.042Z,74.67
2023-04-30T05:30:37.104Z,74.22
2023-04-30T05:33:04.270Z,74.17
2023-04-30T05:35:31.781Z,74.42
2023-04-30T05:37:58.800Z,74.25
2023-04-30T05:40:25.955Z,73.67
2023-04-30T05:42:52.877Z,73.10
2023-04-30T05:45:19.926Z,73.33
2023-04-30T05:47:47.021Z,73.13
2023-04-30T05:50:14.084Z,72.95
2023-04-30T05:52:41.145Z,72.75
2023-04-30T05:55:08.870Z,72.77
2023-04-30T05:57:35.859Z,72.55
2023-04-30T06:00:03.182Z,71.51
2023-04-30T06:02:39.362Z,70.58
2023-04-30T06:05:10.464Z,70.11
2023-04-30T06:07:37.422Z,70.03
2023-04-30T06:10:04.807Z,70.15
2023-04-30T06:12:31.943Z,69.91
2023-04-30T06:14:59.108Z,70.08
2023-04-30T06:17:26.158Z,70.42
2023-04-30T06:19:53.410Z,70.37
2023-04-30T06:22:20.614Z,70.09
2023-04-30T06:24:47.609Z,70.25
2023-04-30T06:27:14.542Z,69.83
2023-04-30T06:29:41.487Z,69.57
2023-04-30T06:32:08.695Z,69.37
2023-04-30T06:34:36.601Z,69.20
2023-04-30T06:37:03.740Z,68.90
2023-04-30T06:39:30.933Z,68.62
2023-04-30T06:41:57.863Z,67.64
2023-04-30T06:44:24.883Z,66.14
2023-04-30T06:46:52.321Z,65.26
2023-04-30T06:49:19.320Z,65.58
2023-04-30T06:51:46.276Z,65.89
2023-04-30T06:54:14.455Z,65.03
2023-04-30T06:56:41.500Z,64.83
2023-04-30T06:59:08.894Z,64.40
2023-04-30T07:01:35.962Z,63.25
2023-04-30T07:04:03.140Z,62.78
2023-04-30T07:06:30.727Z,60.92
2023-04-30T07:08:57.883Z,60.29
2023-04-30T07:11:24.969Z,59.56
2023-04-30T07:13:51.982Z,58.43
2023-04-30T07:16:19.271Z,57.58
2023-04-30T07:18:49.041Z,56.86
2023-04-30T07:21:16.351Z,56.40
2023-04-30T07:23:44.324Z,55.67
2023-04-30T07:26:11.346Z,54.83
2023-04-30T07:28:38.255Z,54.63
2023-04-30T07:31:05.403Z,53.98
2023-04-30T07:33:32.481Z,53.65
2023-04-30T07:35:59.477Z,53.40
2023-04-30T07:38:26.562Z,53.25
2023-04-30T07:40:53.528Z,52.86
2023-04-30T07:43:20.532Z,52.04
2023-04-30T07:45:49.558Z,51.95
2023-04-30T07:48:17.349Z,52.64
2023-04-30T07:50:44.269Z,52.70
2023-04-30T07:53:11.549Z,52.12
2023-04-30T07:55:38.494Z,51.91
2023-04-30T07:58:06.015Z,51.78
2023-04-30T08:00:32.994Z,51.55
2023-04-30T08:03:01.055Z,52.00
2023-04-30T08:05:28.220Z,52.07
2023-04-30T08:07:55.235Z,51.76
2023-04-30T08:10:22.586Z,51.43
2023-04-30T08:12:49.642Z,50.30
2023-04-30T08:15:16.752Z,50.75
2023-04-30T08:17:43.746Z,50.19
2023-04-30T08:20:11.401Z,50.26
2023-04-30T08:22:38.432Z,49.63
2023-04-30T08:25:05.852Z,49.39
2023-04-30T08:27:32.865Z,48.81
2023-04-30T08:29:59.851Z,48.89
2023-04-30T08:32:27.631Z,48.96
2023-04-30T08:34:54.842Z,48.96
2023-04-30T08:37:22.090Z,48.46
2023-04-30T08:39:49.065Z,48.14
2023-04-30T08:42:16.215Z,48.56
2023-04-30T08:44:45.963Z,48.67
2023-04-30T08:47:16.283Z,48.27
2023-04-30T08:49:43.437Z,47.18
2023-04-30T08:52:10.643Z,46.41
2023-04-30T08:54:37.952Z,46.32
2023-04-30T08:57:05.752Z,46.08
2023-04-30T08:59:32.738Z,46.55
2023-04-30T09:02:03.054Z,46.61
2023-04-30T09:04:30.798Z,46.83
2023-04-30T09:06:59.521Z,46.52
2023-04-30T09:09:30.865Z,45.94
2023-04-30T09:12:20.341Z,45.30
2023-04-30T09:15:02.461Z,45.58
2023-04-30T09:17:29.892Z,44.93
2023-04-30T09:20:12.507Z,44.79
2023-04-30T09:22:40.873Z,44.52
2023-04-30T09:25:08.676Z,44.06
2023-04-30T09:27:35.816Z,43.59
2023-04-30T09:30:03.071Z,44.14
2023-04-30T09:32:29.998Z,44.59
2023-04-30T09:34:57.147Z,44.81
2023-04-30T09:37:36.172Z,44.05
2023-04-30T09:40:04.635Z,44.50
2023-04-30T09:42:31.761Z,45.04
2023-04-30T09:44:58.778Z,45.52
2023-04-30T09:47:29.899Z,44.77
2023-04-30T09:49:57.138Z,44.56
2023-04-30T09:52:24.623Z,44.33
2023-04-30T09:54:51.800Z,44.03
2023-04-30T09:57:18.725Z,43.65
2023-04-30T09:59:46.845Z,43.29
2023-04-30T10:02:15.225Z,43.09
2023-04-30T10:04:43.156Z,42.79
2023-04-30T10:07:19.510Z,42.37
2023-04-30T10:10:12.053Z,42.29
2023-04-30T10:12:52.507Z,41.58
2023-04-30T10:15:22.539Z,42.12
2023-04-30T10:18:01.092Z,41.93
2023-04-30T10:20:28.447Z,41.29
2023-04-30T10:22:55.452Z,41.12
2023-04-30T10:25:23.716Z,41.28
2023-04-30T10:27:51.115Z,40.98
2023-04-30T10:30:18.081Z,40.81
2023-04-30T10:32:51.660Z,40.34
2023-04-30T10:35:29.769Z,40.28
2023-04-30T10:38:22.079Z,40.78
2023-04-30T10:40:49.129Z,40.66
2023-04-30T10:43:18.840Z,40.31
2023-04-30T10:45:46.345Z,40.59
2023-04-30T10:48:14.748Z,40.85
2023-04-30T10:50:46.131Z,40.57
2023-04-30T10:53:16.126Z,40.45
2023-04-30T10:55:54.144Z,40.38
2023-04-30T10:58:30.835Z,40.54
2023-04-30T11:01:17.523Z,40.58
2023-04-30T11:04:06.530Z,40.66
2023-04-30T11:07:07.467Z,39.73
2023-04-30T11:09:42.492Z,38.67
2023-04-30T11:12:14.147Z,39.32
2023-04-30T11:14:44.573Z,39.62
2023-04-30T11:17:12.668Z,40.05
2023-04-30T11:19:53.333Z,40.28
2023-04-30T11:22:24.602Z,39.91
2023-04-30T11:25:01.386Z,39.48
2023-04-30T11:27:29.681Z,38.52
2023-04-30T11:29:57.609Z,38.19
2023-04-30T11:32:27.382Z,38.60
2023-04-30T11:34:54.975Z,38.70
2023-04-30T11:37:30.798Z,37.79
2023-04-30T11:39:58.406Z,38.47
2023-04-30T11:42:25.282Z,38.88
2023-04-30T11:44:52.381Z,38.71
2023-04-30T11:47:19.315Z,38.53
2023-04-30T11:49:46.434Z,38.76
2023-04-30T11:52:13.762Z,38.53
2023-04-30T11:54:40.930Z,38.76
2023-04-30T11:57:07.901Z,38.66
2023-04-30T11:59:41.453Z,38.88
2023-04-30T12:02:08.574Z,39.27
2023-04-30T12:04:36.831Z,38.97
2023-04-30T12:07:04.186Z,38.12
2023-04-30T12:09:31.276Z,37.82
2023-04-30T12:11:59.318Z,37.66
2023-04-30T12:14:26.323Z,37.37
2023-04-30T12:16:53.595Z,37.75
2023-04-30T12:19:21.672Z,37.98
2023-04-30T12:21:49.182Z,37.85
2023-04-30T12:24:17.220Z,38.05
2023-04-30T12:26:44.227Z,38.37
2023-04-30T12:29:15.630Z,38.81
2023-04-30T12:31:43.103Z,39.63
2023-04-30T12:34:11.934Z,40.67
2023-04-30T12:36:42.707Z,41.15
2023-04-30T12:39:12.340Z,41.46
2023-04-30T12:41:47.004Z,41.85
2023-04-30T12:44:24.881Z,41.88
2023-04-30T12:47:01.204Z,41.97
2023-04-30T12:49:33.904Z,41.94
2023-04-30T12:52:07.673Z,42.40
2023-04-30T12:54:35.019Z,42.31
2023-04-30T12:57:12.536Z,42.35
2023-04-30T12:59:51.449Z,42.24
2023-04-30T13:02:18.741Z,42.21
2023-04-30T13:04:45.754Z,41.59
2023-04-30T13:07:12.804Z,41.79
2023-04-30T13:09:39.884Z,42.04
2023-04-30T13:12:07.126Z,42.11
2023-04-30T13:14:34.192Z,41.66
2023-04-30T13:17:05.025Z,41.10
2023-04-30T13:19:32.054Z,40.77
2023-04-30T13:22:05.022Z,40.26
2023-04-30T13:24:32.137Z,41.20
2023-04-30T13:26:59.448Z,41.61
2023-04-30T13:29:26.906Z,41.47
2023-04-30T13:31:54.032Z,41.46
2023-04-30T13:34:21.355Z,41.68
2023-04-30T13:36:48.825Z,41.83
2023-04-30T13:39:15.901Z,42.11
2023-04-30T13:41:42.824Z,42.33
2023-04-30T13:44:10.268Z,42.74
2023-04-30T13:46:37.369Z,43.19
2023-04-30T13:49:05.755Z,43.16
2023-04-30T13:51:32.900Z,43.22
2023-04-30T13:53:59.911Z,43.62
2023-04-30T13:56:27.206Z,43.80
2023-04-30T13:58:54.301Z,43.80
2023-04-30T14:01:21.360Z,43.90
2023-04-30T14:03:48.511Z,43.94
2023-04-30T14:06:15.876Z,44.12
2023-04-30T14:08:43.052Z,44.18
2023-04-30T14:11:10.241Z,44.37
2023-04-30T14:13:37.424Z,44.38
2023-04-30T14:16:04.744Z,44.54
2023-04-30T14:18:31.706Z,44.70
2023-04-30T14:20:58.766Z,44.73
2023-04-30T14:23:26.238Z,44.74
2023-04-30T14:25:54.244Z,44.66
2023-04-30T14:28:21.595Z,44.99
2023-04-30T14:30:48.624Z,45.04
2023-04-30T14:33:15.862Z,44.82
2023-04-30T14:35:43.118Z,44.83
2023-04-30T14:38:10.377Z,45.14
2023-04-30T14:40:37.579Z,44.81
2023-04-30T14:43:04.555Z,44.61
2023-04-30T14:45:33.274Z,44.40
2023-04-30T14:48:01.475Z,44.54
2023-04-30T14:50:30.299Z,44.81
2023-04-30T14:52:57.376Z,44.70
2023-04-30T14:55:24.498Z,44.25
2023-04-30T14:57:51.812Z,44.02
2023-04-30T15:00:18.940Z,43.83
2023-04-30T15:02:46.100Z,43.66
2023-04-30T15:05:13.307Z,44.04
2023-04-30T15:07:40.739Z,44.09
2023-04-30T15:10:08.501Z,43.98
2023-04-30T15:12:36.029Z,44.20
2023-04-30T15:15:04.797Z,43.82
2023-04-30T15:17:34.992Z,44.05
2023-04-30T15:20:05.267Z,43.91
2023-04-30T15:22:33.459Z,43.98
2023-04-30T15:25:00.725Z,43.97
2023-04-30T15:27:28.288Z,44.42
2023-04-30T15:29:55.719Z,43.82
2023-04-30T15:32:23.179Z,43.86
2023-04-30T15:34:50.300Z,43.75
2023-04-30T15:37:17.378Z,43.83
2023-04-30T15:39:44.426Z,43.95
2023-04-30T15:42:11.790Z,44.01
2023-04-30T15:44:39.205Z,43.78
2023-04-30T15:47:06.388Z,43.94
2023-04-30T15:49:33.456Z,43.96
2023-04-30T15:52:00.807Z,44.11
2023-04-30T15:54:27.833Z,44.13
2023-04-30T15:56:54.944Z,44.01
2023-04-30T15:59:22.377Z,44.21
2023-04-30T16:01:49.464Z,44.25
2023-04-30T16:04:16.727Z,44.03
2023-04-30T16:06:43.861Z,44.05
2023-04-30T16:09:11.091Z,43.97
2023-04-30T16:11:39.907Z,43.86
2023-04-30T16:14:07.503Z,44.01
2023-04-30T16:16:34.723Z,44.25
2023-04-30T16:19:02.053Z,44.39
2023-04-30T16:21:29.514Z,44.33
2023-04-30T16:23:56.585Z,44.21
2023-04-30T16:26:23.693Z,43.88
2023-04-30T16:28:50.766Z,43.84
2023-04-30T16:31:21.491Z,43.94
2023-04-30T16:33:48.644Z,44.13
2023-04-30T16:36:15.688Z,44.19
2023-04-30T16:38:44.488Z,44.20
2023-04-30T16:41:12.284Z,44.20
2023-04-30T16:43:39.313Z,44.00
2023-04-30T16:46:06.561Z,44.05
2023-04-30T16:48:33.567Z,44.27
2023-04-30T16:51:00.532Z,44.64
2023-04-30T16:53:27.749Z,44.70
2023-04-30T16:55:55.330Z,44.96
2023-04-30T16:58:22.333Z,45.13
2023-04-30T17:00:56.048Z,45.27
2023-04-30T17:03:24.010Z,45.30
2023-04-30T17:05:52.352Z,45.46
2023-04-30T17:08:22.249Z,45.67
2023-04-30T17:10:49.257Z,45.83
2023-04-30T17:13:16.309Z,45.80
2023-04-30T17:15:43.724Z,46.02
2023-04-30T17:18:12.009Z,45.72
2023-04-30T17:20:39.364Z,45.69
2023-04-30T17:23:06.735Z,46.00
2023-04-30T17:25:33.896Z,46.01
2023-04-30T17:28:01.658Z,45.97
2023-04-30T17:30:29.152Z,45.92
2023-04-30T17:32:56.825Z,46.04
2023-04-30T17:35:23.943Z,46.30
2023-04-30T17:37:50.953Z,46.24
2023-04-30T17:40:18.055Z,46.40
2023-04-30T17:42:45.332Z,46.38
2023-04-30T17:45:12.558Z,46.31
2023-04-30T17:47:39.593Z,46.40
2023-04-30T17:50:08.667Z,46.29
2023-04-30T17:52:38.662Z,46.26
2023-04-30T17:55:09.837Z,46.14
2023-04-30T17:57:36.948Z,46.38
2023-04-30T18:00:05.295Z,46.33
2023-04-30T18:02:40.359Z,46.35
2023-04-30T18:05:08.044Z,46.46
2023-04-30T18:07:34.997Z,46.36
2023-04-30T18:10:02.050Z,46.56
2023-04-30T18:12:29.228Z,46.57
2023-04-30T18:14:56.276Z,46.59
2023-04-30T18:17:23.360Z,46.72
2023-04-30T18:19:50.471Z,46.96
2023-04-30T18:22:17.779Z,47.02
2023-04-30T18:24:44.764Z,46.98
2023-04-30T18:27:11.798Z,47.10
2023-04-30T18:29:38.871Z,47.08
2023-04-30T18:32:06.335Z,47.27
2023-04-30T18:34:33.508Z,47.25
2023-04-30T18:37:00.653Z,47.66
2023-04-30T18:39:27.725Z,48.29
2023-04-30T18:41:54.716Z,48.13
2023-04-30T18:44:28.891Z,48.31
2023-04-30T18:46:56.034Z,48.00
2023-04-30T18:49:23.105Z,48.11
2023-04-30T18:51:50.117Z,48.21
2023-04-30T18:54:17.834Z,48.38
2023-04-30T18:56:45.361Z,48.42
2023-04-30T18:59:12.543Z,48.49
2023-04-30T19:01:39.615Z,48.43
2023-04-30T19:04:06.576Z,48.55
2023-04-30T19:06:34.573Z,48.71
2023-04-30T19:09:01.619Z,48.94
2023-04-30T19:11:28.817Z,49.18
2023-04-30T19:13:55.853Z,49.45
2023-04-30T19:16:22.918Z,49.26
2023-04-30T19:18:49.936Z,49.27
2023-04-30T19:21:17.109Z,49.25
2023-04-30T19:23:44.089Z,49.20
2023-04-30T19:26:11.208Z,49.25
2023-04-30T19:28:38.130Z,49.24
2023-04-30T19:31:06.217Z,49.32
2023-04-30T19:33:38.225Z,49.30
2023-04-30T19:36:05.778Z,48.92
2023-04-30T19:38:32.741Z,48.89
2023-04-30T19:41:00.031Z,48.95
2023-04-30T19:43:26.970Z,48.65
2023-04-30T19:45:55.282Z,48.84
2023-04-30T19:48:22.668Z,48.72
2023-04-30T19:50:50.024Z,48.86
2023-04-30T19:53:17.263Z,48.92
2023-04-30T19:55:44.295Z,48.93
2023-04-30T19:58:12.146Z,49.12
2023-04-30T20:00:41.636Z,49.14
2023-04-30T20:03:09.030Z,49.30
2023-04-30T20:05:39.770Z,49.21
2023-04-30T20:08:07.595Z,49.13
2023-04-30T20:10:36.370Z,49.06
2023-04-30T20:13:04.181Z,49.08
2023-04-30T20:15:31.977Z,48.98
2023-04-30T20:17:59.316Z,48.97
2023-04-30T20:20:26.643Z,49.06
2023-04-30T20:22:54.266Z,49.14
2023-04-30T20:25:22.074Z,49.14
2023-04-30T20:27:49.319Z,49.28
2023-04-30T20:30:16.551Z,49.31
2023-04-30T20:32:43.587Z,49.22
2023-04-30T20:35:10.518Z,49.33
2023-04-30T20:37:37.836Z,49.20
2023-04-30T20:40:07.958Z,49.49
2023-04-30T20:42:35.153Z,49.55
2023-04-30T20:45:04.643Z,49.66
2023-04-30T20:47:32.747Z,49.62
2023-04-30T20:50:01.151Z,49.72
2023-04-30T20:52:28.210Z,49.87
2023-04-30T20:54:55.255Z,50.02
2023-04-30T20:57:22.286Z,50.03
2023-04-30T20:59:49.261Z,50.16
2023-04-30T21:02:16.582Z,50.09
2023-04-30T21:04:43.549Z,50.21
2023-04-30T21:07:10.631Z,50.33
2023-04-30T21:09:38.565Z,50.35
2023-04-30T21:12:06.348Z,50.54
2023-04-30T21:14:34.077Z,50.65
2023-04-30T21:17:01.132Z,50.67
2023-04-30T21:19:28.110Z,50.63
2023-04-30T21:21:55.031Z,50.93
2023-04-30T21:24:21.981Z,51.05
2023-04-30T21:26:48.958Z,50.98
2023-04-30T21:29:15.938Z,51.14
2023-04-30T21:31:42.863Z,51.12
2023-04-30T21:34:09.970Z,51.27
2023-04-30T21:36:37.704Z,51.39
2023-04-30T21:39:04.642Z,51.42
2023-04-30T21:41:32.304Z,51.56
2023-04-30T21:43:59.383Z,51.79
2023-04-30T21:46:26.443Z,52.00
2023-04-30T21:48:53.502Z,51.92
2023-04-30T21:51:20.508Z,52.14
2023-04-30T21:53:47.502Z,52.13
2023-04-30T21:56:15.222Z,52.26
2023-04-30T21:58:42.242Z,52.11
2023-04-30T22:01:09.400Z,52.01
2023-04-30T22:03:36.659Z,52.08
2023-04-30T22:06:04.131Z,51.91
2023-04-30T22:08:31.261Z,51.88
2023-04-30T22:10:59.189Z,52.03
2023-04-30T22:13:29.188Z,52.10
2023-04-30T22:15:56.407Z,52.31
2023-04-30T22:18:24.721Z,52.12
2023-04-30T22:20:52.099Z,52.09
2023-04-30T22:23:21.434Z,52.35
2023-04-30T22:25:48.553Z,52.56
2023-04-30T22:28:19.472Z,52.84
2023-04-30T22:30:46.867Z,52.83
2023-04-30T22:33:13.923Z,52.94
2023-04-30T22:35:41.071Z,53.04
2023-04-30T22:38:08.116Z,53.04
2023-04-30T22:40:36.580Z,53.01
2023-04-30T22:43:05.398Z,53.32
2023-04-30T22:45:32.778Z,53.70
2023-04-30T22:48:01.536Z,54.17
2023-04-30T22:50:28.972Z,54.55
2023-04-30T22:52:56.436Z,54.96
2023-04-30T22:55:23.436Z,55.25
2023-04-30T22:57:50.747Z,56.31
2023-04-30T23:00:19.191Z,57.88
2023-04-30T23:02:46.258Z,58.97
2023-04-30T23:05:13.249Z,60.02
2023-04-30T23:07:40.225Z,60.90
2023-04-30T23:10:07.693Z,61.09
2023-04-30T23:12:35.793Z,61.17
2023-04-30T23:15:02.865Z,61.71
2023-04-30T23:17:29.875Z,61.83
2023-04-30T23:19:57.115Z,62.14
2023-04-30T23:22:24.279Z,62.10
2023-04-30T23:24:51.394Z,62.42
2023-04-30T23:27:18.989Z,63.29
2023-04-30T23:29:45.940Z,64.04
2023-04-30T23:32:12.893Z,65.02
2023-04-30T23:34:39.953Z,66.01
2023-04-30T23:37:06.937Z,66.32
2023-04-30T23:39:33.862Z,66.73
2023-04-30T23:42:00.974Z,66.97
2023-04-30T23:44:31.713Z,67.52
2023-04-30T23:47:01.051Z,67.75
2023-04-30T23:49:28.075Z,68.04
2023-04-30T23:51:54.994Z,68.45
2023-04-30T23:54:22.478Z,68.63
2023-04-30T23:56:49.870Z,68.69
2023-04-30T23:59:16.859Z,68.72
